Terminal Aerodrome Forecast
Issued by NWS Detroit/Pontiac, MI

Home | Current Version | Previous Version | Text Only | Print | Product List | Glossary On
Versions: 1 2 3 4 5 6 7 8 9 10 11 12 13 14 15 16 17 18 19 20 21 22 23 24 25 26 27 28 29
000
FTUS43 KDTX 221503 AAB
TAFDTW
TAF AMD
KDTW 221503Z 2215/2318 22008KT 3SM BR SCT030
      TEMPO 2215/2217 1/2SM FG VV004
     FM221700 21010KT P6SM BKN030
     FM230200 19011KT 4SM BR OVC008
     FM231400 27007KT P6SM BKN035=

USA.gov is the U.S. government's official web portal to all federal, state and local government web resources and services.